sensor_id;sensor_type;location;lat;lon;timestamp;temperature;humidity
73477;DHT22;61713;51.034;13.756;2022-08-21T00:02:26;18.70;99.90
73477;DHT22;61713;51.034;13.756;2022-08-21T00:04:52;18.60;99.90
73477;DHT22;61713;51.034;13.756;2022-08-21T00:07:18;18.60;99.90
73477;DHT22;61713;51.034;13.756;2022-08-21T00:09:44;18.50;99.90
73477;DHT22;61713;51.034;13.756;2022-08-21T00:12:10;18.20;99.90
73477;DHT22;61713;51.034;13.756;2022-08-21T00:14:36;18.10;99.90
73477;DHT22;61713;51.034;13.756;2022-08-21T00:17:03;18.20;99.90
73477;DHT22;61713;51.034;13.756;2022-08-21T00:19:29;18.20;99.90
73477;DHT22;61713;51.034;13.756;2022-08-21T00:21:55;18.20;99.90
73477;DHT22;61713;51.034;13.756;2022-08-21T00:24:22;18.20;99.90
73477;DHT22;61713;51.034;13.756;2022-08-21T00:26:48;18.20;99.90
73477;DHT22;61713;51.034;13.756;2022-08-21T00:29:14;18.20;99.90
73477;DHT22;61713;51.034;13.756;2022-08-21T00:31:41;18.20;99.90
73477;DHT22;61713;51.034;13.756;2022-08-21T00:34:07;18.30;99.90
73477;DHT22;61713;51.034;13.756;2022-08-21T00:36:33;18.20;99.90
73477;DHT22;61713;51.034;13.756;2022-08-21T00:38:58;18.20;99.90
73477;DHT22;61713;51.034;13.756;2022-08-21T00:41:24;18.20;99.90
73477;DHT22;61713;51.034;13.756;2022-08-21T00:43:49;18.20;99.90
73477;DHT22;61713;51.034;13.756;2022-08-21T00:46:16;18.20;99.90
73477;DHT22;61713;51.034;13.756;2022-08-21T00:48:42;18.20;99.90
73477;DHT22;61713;51.034;13.756;2022-08-21T00:51:11;18.20;99.90
73477;DHT22;61713;51.034;13.756;2022-08-21T00:53:42;18.20;99.90
73477;DHT22;61713;51.034;13.756;2022-08-21T00:56:10;18.20;99.90
73477;DHT22;61713;51.034;13.756;2022-08-21T00:58:38;18.20;99.90
73477;DHT22;61713;51.034;13.756;2022-08-21T01:01:05;18.30;99.90
73477;DHT22;61713;51.034;13.756;2022-08-21T01:03:31;18.20;99.90
73477;DHT22;61713;51.034;13.756;2022-08-21T01:05:57;18.20;99.90
73477;DHT22;61713;51.034;13.756;2022-08-21T01:08:23;18.30;99.90
73477;DHT22;61713;51.034;13.756;2022-08-21T01:10:49;18.30;99.90
73477;DHT22;61713;51.034;13.756;2022-08-21T01:13:18;18.30;99.90
73477;DHT22;61713;51.034;13.756;2022-08-21T01:15:47;18.30;99.90
73477;DHT22;61713;51.034;13.756;2022-08-21T01:18:15;18.30;99.90
73477;DHT22;61713;51.034;13.756;2022-08-21T01:23:28;18.20;99.90
73477;DHT22;61713;51.034;13.756;2022-08-21T01:25:54;18.30;99.90
73477;DHT22;61713;51.034;13.756;2022-08-21T01:28:21;18.20;99.90
73477;DHT22;61713;51.034;13.756;2022-08-21T01:30:48;18.10;99.90
73477;DHT22;61713;51.034;13.756;2022-08-21T01:33:17;17.90;99.90
73477;DHT22;61713;51.034;13.756;2022-08-21T01:35:43;17.90;99.90
73477;DHT22;61713;51.034;13.756;2022-08-21T01:38:08;17.80;99.90
73477;DHT22;61713;51.034;13.756;2022-08-21T01:40:34;17.90;99.90
73477;DHT22;61713;51.034;13.756;2022-08-21T01:43:00;17.80;99.90
73477;DHT22;61713;51.034;13.756;2022-08-21T01:45:25;17.70;99.90
73477;DHT22;61713;51.034;13.756;2022-08-21T01:47:51;17.60;99.90
73477;DHT22;61713;51.034;13.756;2022-08-21T01:50:18;17.50;99.90
73477;DHT22;61713;51.034;13.756;2022-08-21T01:52:44;17.50;99.90
73477;DHT22;61713;51.034;13.756;2022-08-21T01:55:11;17.50;99.90
73477;DHT22;61713;51.034;13.756;2022-08-21T01:57:38;17.60;99.90
73477;DHT22;61713;51.034;13.756;2022-08-21T02:00:08;17.60;99.90
73477;DHT22;61713;51.034;13.756;2022-08-21T02:02:36;17.50;99.90
73477;DHT22;61713;51.034;13.756;2022-08-21T02:05:02;17.60;99.90
73477;DHT22;61713;51.034;13.756;2022-08-21T02:07:39;17.50;99.90
73477;DHT22;61713;51.034;13.756;2022-08-21T02:10:07;17.60;99.90
73477;DHT22;61713;51.034;13.756;2022-08-21T02:12:33;17.50;99.90
73477;DHT22;61713;51.034;13.756;2022-08-21T02:14:59;17.50;99.90
73477;DHT22;61713;51.034;13.756;2022-08-21T02:17:25;17.50;99.90
73477;DHT22;61713;51.034;13.756;2022-08-21T02:19:51;17.50;99.90
73477;DHT22;61713;51.034;13.756;2022-08-21T02:22:16;17.60;99.90
73477;DHT22;61713;51.034;13.756;2022-08-21T02:24:42;17.70;99.90
73477;DHT22;61713;51.034;13.756;2022-08-21T02:27:07;17.70;99.90
73477;DHT22;61713;51.034;13.756;2022-08-21T02:29:33;17.60;99.90
73477;DHT22;61713;51.034;13.756;2022-08-21T02:31:58;17.60;99.90
73477;DHT22;61713;51.034;13.756;2022-08-21T02:34:24;17.70;99.90
73477;DHT22;61713;51.034;13.756;2022-08-21T02:36:50;17.70;99.90
73477;DHT22;61713;51.034;13.756;2022-08-21T02:39:15;17.60;99.90
73477;DHT22;61713;51.034;13.756;2022-08-21T02:41:41;17.60;99.90
73477;DHT22;61713;51.034;13.756;2022-08-21T02:44:06;17.60;99.90
73477;DHT22;61713;51.034;13.756;2022-08-21T02:46:33;17.60;99.90
73477;DHT22;61713;51.034;13.756;2022-08-21T02:48:59;17.60;99.90
73477;DHT22;61713;51.034;13.756;2022-08-21T02:51:25;17.60;99.90
73477;DHT22;61713;51.034;13.756;2022-08-21T02:53:52;17.60;99.90
73477;DHT22;61713;51.034;13.756;2022-08-21T02:56:20;17.60;99.90
73477;DHT22;61713;51.034;13.756;2022-08-21T02:58:49;17.60;99.90
73477;DHT22;61713;51.034;13.756;2022-08-21T03:01:17;17.60;99.90
73477;DHT22;61713;51.034;13.756;2022-08-21T03:03:44;17.70;99.90
73477;DHT22;61713;51.034;13.756;2022-08-21T03:06:12;17.60;99.90
73477;DHT22;61713;51.034;13.756;2022-08-21T03:08:38;17.60;99.90
73477;DHT22;61713;51.034;13.756;2022-08-21T03:11:04;17.70;99.90
73477;DHT22;61713;51.034;13.756;2022-08-21T03:13:30;17.70;99.90
73477;DHT22;61713;51.034;13.756;2022-08-21T03:15:57;17.80;99.90
73477;DHT22;61713;51.034;13.756;2022-08-21T03:18:22;17.80;99.90
73477;DHT22;61713;51.034;13.756;2022-08-21T03:20:48;17.80;99.90
73477;DHT22;61713;51.034;13.756;2022-08-21T03:23:15;17.90;99.90
73477;DHT22;61713;51.034;13.756;2022-08-21T03:25:41;17.90;99.90
73477;DHT22;61713;51.034;13.756;2022-08-21T03:28:17;18.00;99.90
73477;DHT22;61713;51.034;13.756;2022-08-21T03:30:44;18.00;99.90
73477;DHT22;61713;51.034;13.756;2022-08-21T03:33:10;18.00;99.90
73477;DHT22;61713;51.034;13.756;2022-08-21T03:35:36;18.10;99.90
73477;DHT22;61713;51.034;13.756;2022-08-21T03:38:02;18.00;99.90
73477;DHT22;61713;51.034;13.756;2022-08-21T03:40:27;18.10;99.90
73477;DHT22;61713;51.034;13.756;2022-08-21T03:42:53;18.10;99.90
73477;DHT22;61713;51.034;13.756;2022-08-21T03:45:19;17.90;99.90
73477;DHT22;61713;51.034;13.756;2022-08-21T03:47:52;17.80;99.90
73477;DHT22;61713;51.034;13.756;2022-08-21T03:50:18;17.70;99.90
73477;DHT22;61713;51.034;13.756;2022-08-21T03:52:44;17.60;99.90
73477;DHT22;61713;51.034;13.756;2022-08-21T03:55:10;17.70;99.90
73477;DHT22;61713;51.034;13.756;2022-08-21T03:57:36;17.70;99.90
73477;DHT22;61713;51.034;13.756;2022-08-21T04:00:02;17.80;99.90
73477;DHT22;61713;51.034;13.756;2022-08-21T04:02:28;17.90;99.90
73477;DHT22;61713;51.034;13.756;2022-08-21T04:04:53;17.90;99.90
73477;DHT22;61713;51.034;13.756;2022-08-21T04:07:19;17.90;99.90
73477;DHT22;61713;51.034;13.756;2022-08-21T04:09:44;17.90;99.90
73477;DHT22;61713;51.034;13.756;2022-08-21T04:12:10;17.90;99.90
73477;DHT22;61713;51.034;13.756;2022-08-21T04:14:35;17.80;99.90
73477;DHT22;61713;51.034;13.756;2022-08-21T04:17:01;17.70;99.90
73477;DHT22;61713;51.034;13.756;2022-08-21T04:19:26;17.60;99.90
73477;DHT22;61713;51.034;13.756;2022-08-21T04:21:52;17.70;99.90
73477;DHT22;61713;51.034;13.756;2022-08-21T04:24:17;17.70;99.90
73477;DHT22;61713;51.034;13.756;2022-08-21T04:26:44;17.70;99.90
73477;DHT22;61713;51.034;13.756;2022-08-21T04:29:09;17.80;99.90
73477;DHT22;61713;51.034;13.756;2022-08-21T04:31:35;17.80;99.90
73477;DHT22;61713;51.034;13.756;2022-08-21T04:34:05;17.90;99.90
73477;DHT22;61713;51.034;13.756;2022-08-21T04:36:32;17.90;99.90
73477;DHT22;61713;51.034;13.756;2022-08-21T04:38:57;17.90;99.90
73477;DHT22;61713;51.034;13.756;2022-08-21T04:41:23;18.00;99.90
73477;DHT22;61713;51.034;13.756;2022-08-21T04:43:49;18.00;99.90
73477;DHT22;61713;51.034;13.756;2022-08-21T04:46:15;18.00;99.90
73477;DHT22;61713;51.034;13.756;2022-08-21T04:48:40;18.00;99.90
73477;DHT22;61713;51.034;13.756;2022-08-21T04:51:13;18.10;99.90
73477;DHT22;61713;51.034;13.756;2022-08-21T04:56:19;18.10;99.90
73477;DHT22;61713;51.034;13.756;2022-08-21T04:58:46;18.10;99.90
73477;DHT22;61713;51.034;13.756;2022-08-21T05:01:17;18.10;99.90
73477;DHT22;61713;51.034;13.756;2022-08-21T05:03:44;18.20;99.90
73477;DHT22;61713;51.034;13.756;2022-08-21T05:06:13;18.20;99.90
73477;DHT22;61713;51.034;13.756;2022-08-21T05:08:40;18.20;99.90
73477;DHT22;61713;51.034;13.756;2022-08-21T05:11:06;18.30;99.90
73477;DHT22;61713;51.034;13.756;2022-08-21T05:13:32;18.30;99.90
73477;DHT22;61713;51.034;13.756;2022-08-21T05:15:57;18.40;99.90
73477;DHT22;61713;51.034;13.756;2022-08-21T05:18:24;18.50;99.90
73477;DHT22;61713;51.034;13.756;2022-08-21T05:20:49;18.60;99.90
73477;DHT22;61713;51.034;13.756;2022-08-21T05:23:15;18.60;99.90
73477;DHT22;61713;51.034;13.756;2022-08-21T05:25:41;18.60;99.90
73477;DHT22;61713;51.034;13.756;2022-08-21T05:28:08;18.70;99.90
73477;DHT22;61713;51.034;13.756;2022-08-21T05:30:35;18.80;99.90
73477;DHT22;61713;51.034;13.756;2022-08-21T05:33:02;18.80;99.90
73477;DHT22;61713;51.034;13.756;2022-08-21T05:35:29;18.90;99.90
73477;DHT22;61713;51.034;13.756;2022-08-21T05:37:54;18.90;99.90
73477;DHT22;61713;51.034;13.756;2022-08-21T05:40:20;18.90;99.90
73477;DHT22;61713;51.034;13.756;2022-08-21T05:42:46;18.80;99.90
73477;DHT22;61713;51.034;13.756;2022-08-21T05:45:11;18.80;99.90
73477;DHT22;61713;51.034;13.756;2022-08-21T05:47:37;18.50;99.90
73477;DHT22;61713;51.034;13.756;2022-08-21T05:50:04;18.30;99.90
73477;DHT22;61713;51.034;13.756;2022-08-21T05:52:29;18.40;99.90
73477;DHT22;61713;51.034;13.756;2022-08-21T05:54:55;18.60;99.90
73477;DHT22;61713;51.034;13.756;2022-08-21T05:57:21;18.40;99.90
73477;DHT22;61713;51.034;13.756;2022-08-21T05:59:47;18.50;99.90
73477;DHT22;61713;51.034;13.756;2022-08-21T06:02:12;18.40;99.90
73477;DHT22;61713;51.034;13.756;2022-08-21T06:04:39;18.60;99.90
73477;DHT22;61713;51.034;13.756;2022-08-21T06:07:04;18.80;99.90
73477;DHT22;61713;51.034;13.756;2022-08-21T06:09:30;18.90;99.90
73477;DHT22;61713;51.034;13.756;2022-08-21T06:11:55;18.80;99.90
73477;DHT22;61713;51.034;13.756;2022-08-21T06:14:21;18.80;99.90
73477;DHT22;61713;51.034;13.756;2022-08-21T06:16:46;18.90;99.90
73477;DHT22;61713;51.034;13.756;2022-08-21T06:19:12;18.90;99.90
73477;DHT22;61713;51.034;13.756;2022-08-21T06:21:37;18.80;99.90
73477;DHT22;61713;51.034;13.756;2022-08-21T06:24:04;18.70;99.90
73477;DHT22;61713;51.034;13.756;2022-08-21T06:26:30;18.60;99.90
73477;DHT22;61713;51.034;13.756;2022-08-21T06:28:56;18.70;99.90
73477;DHT22;61713;51.034;13.756;2022-08-21T06:31:24;18.60;99.90
73477;DHT22;61713;51.034;13.756;2022-08-21T06:33:50;18.40;99.90
73477;DHT22;61713;51.034;13.756;2022-08-21T06:36:18;18.50;99.90
73477;DHT22;61713;51.034;13.756;2022-08-21T06:38:43;18.50;99.90
73477;DHT22;61713;51.034;13.756;2022-08-21T06:41:10;18.60;99.90
73477;DHT22;61713;51.034;13.756;2022-08-21T06:43:36;18.60;99.90
73477;DHT22;61713;51.034;13.756;2022-08-21T06:46:01;18.60;99.90
73477;DHT22;61713;51.034;13.756;2022-08-21T06:48:27;18.80;99.90
73477;DHT22;61713;51.034;13.756;2022-08-21T06:50:52;18.70;99.90
73477;DHT22;61713;51.034;13.756;2022-08-21T06:53:19;18.70;99.90
73477;DHT22;61713;51.034;13.756;2022-08-21T06:55:46;18.70;99.90
73477;DHT22;61713;51.034;13.756;2022-08-21T06:58:12;19.00;99.90
73477;DHT22;61713;51.034;13.756;2022-08-21T07:00:41;19.10;99.90
73477;DHT22;61713;51.034;13.756;2022-08-21T07:03:15;18.90;99.90
73477;DHT22;61713;51.034;13.756;2022-08-21T07:05:41;18.70;99.90
73477;DHT22;61713;51.034;13.756;2022-08-21T07:08:06;18.80;99.90
73477;DHT22;61713;51.034;13.756;2022-08-21T07:10:32;18.80;99.90
73477;DHT22;61713;51.034;13.756;2022-08-21T07:12:57;18.90;99.90
73477;DHT22;61713;51.034;13.756;2022-08-21T07:15:22;18.80;99.90
73477;DHT22;61713;51.034;13.756;2022-08-21T07:17:48;18.80;99.90
73477;DHT22;61713;51.034;13.756;2022-08-21T07:20:13;18.90;99.90
73477;DHT22;61713;51.034;13.756;2022-08-21T07:22:39;19.10;99.90
73477;DHT22;61713;51.034;13.756;2022-08-21T07:25:06;19.00;99.90
73477;DHT22;61713;51.034;13.756;2022-08-21T07:27:32;19.10;99.90
73477;DHT22;61713;51.034;13.756;2022-08-21T07:29:58;19.10;99.90
73477;DHT22;61713;51.034;13.756;2022-08-21T07:32:23;19.20;99.90
73477;DHT22;61713;51.034;13.756;2022-08-21T07:34:49;19.40;99.90
73477;DHT22;61713;51.034;13.756;2022-08-21T07:37:14;19.20;99.90
73477;DHT22;61713;51.034;13.756;2022-08-21T07:39:40;19.30;99.90
73477;DHT22;61713;51.034;13.756;2022-08-21T07:42:06;19.30;99.90
73477;DHT22;61713;51.034;13.756;2022-08-21T07:44:31;19.40;99.90
73477;DHT22;61713;51.034;13.756;2022-08-21T07:47:00;19.30;99.90
73477;DHT22;61713;51.034;13.756;2022-08-21T07:49:25;19.30;99.90
73477;DHT22;61713;51.034;13.756;2022-08-21T07:51:51;19.10;99.90
73477;DHT22;61713;51.034;13.756;2022-08-21T07:54:17;19.30;99.90
73477;DHT22;61713;51.034;13.756;2022-08-21T07:56:42;19.20;99.90
73477;DHT22;61713;51.034;13.756;2022-08-21T07:59:08;19.00;99.90
73477;DHT22;61713;51.034;13.756;2022-08-21T08:01:33;19.00;99.90
73477;DHT22;61713;51.034;13.756;2022-08-21T08:03:59;19.20;99.90
73477;DHT22;61713;51.034;13.756;2022-08-21T08:06:24;19.50;99.90
73477;DHT22;61713;51.034;13.756;2022-08-21T08:08:51;19.40;99.90
73477;DHT22;61713;51.034;13.756;2022-08-21T08:11:17;19.40;99.90
73477;DHT22;61713;51.034;13.756;2022-08-21T08:13:48;19.30;99.90
73477;DHT22;61713;51.034;13.756;2022-08-21T08:16:14;19.10;99.90
73477;DHT22;61713;51.034;13.756;2022-08-21T08:18:40;19.20;99.90
73477;DHT22;61713;51.034;13.756;2022-08-21T08:21:07;19.20;99.90
73477;DHT22;61713;51.034;13.756;2022-08-21T08:23:33;19.30;99.90
73477;DHT22;61713;51.034;13.756;2022-08-21T08:25:59;19.40;99.90
73477;DHT22;61713;51.034;13.756;2022-08-21T08:28:25;19.40;99.90
73477;DHT22;61713;51.034;13.756;2022-08-21T08:30:51;19.40;99.90
73477;DHT22;61713;51.034;13.756;2022-08-21T08:33:16;19.40;99.90
73477;DHT22;61713;51.034;13.756;2022-08-21T08:35:47;19.50;99.90
73477;DHT22;61713;51.034;13.756;2022-08-21T08:38:14;19.50;99.90
73477;DHT22;61713;51.034;13.756;2022-08-21T08:43:32;19.60;99.90
73477;DHT22;61713;51.034;13.756;2022-08-21T08:46:02;19.70;99.90
73477;DHT22;61713;51.034;13.756;2022-08-21T08:48:56;19.90;99.90
73477;DHT22;61713;51.034;13.756;2022-08-21T08:51:37;19.80;99.90
73477;DHT22;61713;51.034;13.756;2022-08-21T08:54:07;19.80;99.90
73477;DHT22;61713;51.034;13.756;2022-08-21T08:56:35;20.10;99.90
73477;DHT22;61713;51.034;13.756;2022-08-21T08:59:16;20.00;99.90
73477;DHT22;61713;51.034;13.756;2022-08-21T09:01:43;19.90;99.90
73477;DHT22;61713;51.034;13.756;2022-08-21T09:04:10;19.80;99.90
73477;DHT22;61713;51.034;13.756;2022-08-21T09:07:17;19.90;99.90
73477;DHT22;61713;51.034;13.756;2022-08-21T09:10:16;19.90;99.90
73477;DHT22;61713;51.034;13.756;2022-08-21T09:13:03;20.00;99.90
73477;DHT22;61713;51.034;13.756;2022-08-21T09:15:52;20.30;99.90
73477;DHT22;61713;51.034;13.756;2022-08-21T09:18:32;20.10;99.90
73477;DHT22;61713;51.034;13.756;2022-08-21T09:21:28;20.30;99.90
73477;DHT22;61713;51.034;13.756;2022-08-21T09:26:31;20.40;99.90
73477;DHT22;61713;51.034;13.756;2022-08-21T09:29:01;20.30;99.90
73477;DHT22;61713;51.034;13.756;2022-08-21T09:31:30;20.40;99.90
73477;DHT22;61713;51.034;13.756;2022-08-21T09:34:00;20.20;99.90
73477;DHT22;61713;51.034;13.756;2022-08-21T09:38:56;20.40;99.90
73477;DHT22;61713;51.034;13.756;2022-08-21T09:41:28;20.50;99.90
73477;DHT22;61713;51.034;13.756;2022-08-21T09:43:54;20.80;99.90
73477;DHT22;61713;51.034;13.756;2022-08-21T09:46:24;20.70;99.90
73477;DHT22;61713;51.034;13.756;2022-08-21T09:48:53;20.70;99.90
73477;DHT22;61713;51.034;13.756;2022-08-21T09:51:25;20.30;99.90
73477;DHT22;61713;51.034;13.756;2022-08-21T09:56:50;20.40;99.90
73477;DHT22;61713;51.034;13.756;2022-08-21T09:59:35;20.40;99.90
73477;DHT22;61713;51.034;13.756;2022-08-21T10:02:20;20.80;99.90
73477;DHT22;61713;51.034;13.756;2022-08-21T10:04:55;20.60;99.90
73477;DHT22;61713;51.034;13.756;2022-08-21T10:07:23;20.90;99.90
73477;DHT22;61713;51.034;13.756;2022-08-21T10:10:09;20.70;99.90
73477;DHT22;61713;51.034;13.756;2022-08-21T10:12:46;20.60;99.90
73477;DHT22;61713;51.034;13.756;2022-08-21T10:21:04;21.00;99.90
73477;DHT22;61713;51.034;13.756;2022-08-21T10:23:54;21.30;99.90
73477;DHT22;61713;51.034;13.756;2022-08-21T10:26:41;21.20;99.90
73477;DHT22;61713;51.034;13.756;2022-08-21T10:29:47;21.20;99.90
73477;DHT22;61713;51.034;13.756;2022-08-21T10:32:27;21.10;99.90
73477;DHT22;61713;51.034;13.756;2022-08-21T10:40:39;21.10;99.90
73477;DHT22;61713;51.034;13.756;2022-08-21T10:43:21;21.50;99.90
73477;DHT22;61713;51.034;13.756;2022-08-21T10:48:48;21.30;99.90
73477;DHT22;61713;51.034;13.756;2022-08-21T10:54:31;20.80;99.90
73477;DHT22;61713;51.034;13.756;2022-08-21T10:57:06;21.30;99.90
73477;DHT22;61713;51.034;13.756;2022-08-21T10:59:48;21.00;99.90
73477;DHT22;61713;51.034;13.756;2022-08-21T11:02:20;21.00;99.90
73477;DHT22;61713;51.034;13.756;2022-08-21T11:05:14;21.40;99.90
73477;DHT22;61713;51.034;13.756;2022-08-21T11:07:48;21.30;99.90
73477;DHT22;61713;51.034;13.756;2022-08-21T11:10:17;21.30;99.90
73477;DHT22;61713;51.034;13.756;2022-08-21T11:12:48;21.40;99.90
73477;DHT22;61713;51.034;13.756;2022-08-21T11:15:48;21.50;99.90
73477;DHT22;61713;51.034;13.756;2022-08-21T11:18:37;21.70;99.90
73477;DHT22;61713;51.034;13.756;2022-08-21T11:21:20;21.90;99.90
73477;DHT22;61713;51.034;13.756;2022-08-21T11:23:54;22.50;99.90
73477;DHT22;61713;51.034;13.756;2022-08-21T11:26:37;22.70;99.90
73477;DHT22;61713;51.034;13.756;2022-08-21T11:29:30;23.10;99.90
73477;DHT22;61713;51.034;13.756;2022-08-21T11:32:06;23.10;99.90
73477;DHT22;61713;51.034;13.756;2022-08-21T11:34:47;22.70;99.90
73477;DHT22;61713;51.034;13.756;2022-08-21T11:46:32;22.60;99.90
73477;DHT22;61713;51.034;13.756;2022-08-21T11:49:17;22.90;99.90
73477;DHT22;61713;51.034;13.756;2022-08-21T11:54:49;22.30;99.90
73477;DHT22;61713;51.034;13.756;2022-08-21T11:57:25;22.50;99.90
73477;DHT22;61713;51.034;13.756;2022-08-21T12:00:10;22.50;99.90
73477;DHT22;61713;51.034;13.756;2022-08-21T12:02:45;22.70;99.60
73477;DHT22;61713;51.034;13.756;2022-08-21T12:05:29;22.50;98.10
73477;DHT22;61713;51.034;13.756;2022-08-21T12:08:14;22.90;99.00
73477;DHT22;61713;51.034;13.756;2022-08-21T12:10:58;23.00;98.20
73477;DHT22;61713;51.034;13.756;2022-08-21T12:13:29;23.10;97.80
73477;DHT22;61713;51.034;13.756;2022-08-21T12:16:15;23.00;97.00
73477;DHT22;61713;51.034;13.756;2022-08-21T12:18:41;22.90;97.30
73477;DHT22;61713;51.034;13.756;2022-08-21T12:21:25;23.10;96.80
73477;DHT22;61713;51.034;13.756;2022-08-21T12:24:05;23.00;96.20
73477;DHT22;61713;51.034;13.756;2022-08-21T12:27:26;23.10;96.20
73477;DHT22;61713;51.034;13.756;2022-08-21T12:30:02;23.10;95.20
73477;DHT22;61713;51.034;13.756;2022-08-21T12:32:30;23.20;94.30
73477;DHT22;61713;51.034;13.756;2022-08-21T12:35:07;22.80;94.50
73477;DHT22;61713;51.034;13.756;2022-08-21T12:37:40;22.70;94.90
73477;DHT22;61713;51.034;13.756;2022-08-21T12:40:17;23.20;94.70
73477;DHT22;61713;51.034;13.756;2022-08-21T12:42:48;23.60;94.20
73477;DHT22;61713;51.034;13.756;2022-08-21T12:45:40;23.50;93.00
73477;DHT22;61713;51.034;13.756;2022-08-21T12:48:49;23.20;93.00
73477;DHT22;61713;51.034;13.756;2022-08-21T12:51:31;24.10;92.10
73477;DHT22;61713;51.034;13.756;2022-08-21T12:53:59;24.30;91.90
73477;DHT22;61713;51.034;13.756;2022-08-21T12:56:27;24.00;90.80
73477;DHT22;61713;51.034;13.756;2022-08-21T12:59:01;24.50;90.00
73477;DHT22;61713;51.034;13.756;2022-08-21T13:04:04;25.10;87.30
73477;DHT22;61713;51.034;13.756;2022-08-21T13:06:45;25.30;86.70
73477;DHT22;61713;51.034;13.756;2022-08-21T13:09:13;25.70;88.20
73477;DHT22;61713;51.034;13.756;2022-08-21T13:11:41;25.20;88.20
73477;DHT22;61713;51.034;13.756;2022-08-21T13:14:17;26.20;85.30
73477;DHT22;61713;51.034;13.756;2022-08-21T13:16:47;25.60;85.60
73477;DHT22;61713;51.034;13.756;2022-08-21T13:19:17;24.90;86.80
73477;DHT22;61713;51.034;13.756;2022-08-21T13:21:44;25.00;88.60
73477;DHT22;61713;51.034;13.756;2022-08-21T13:26:47;25.90;85.00
73477;DHT22;61713;51.034;13.756;2022-08-21T13:29:16;24.90;87.50
73477;DHT22;61713;51.034;13.756;2022-08-21T13:31:56;25.40;87.40
73477;DHT22;61713;51.034;13.756;2022-08-21T13:34:25;26.50;82.30
73477;DHT22;61713;51.034;13.756;2022-08-21T13:36:58;26.50;84.60
73477;DHT22;61713;51.034;13.756;2022-08-21T13:39:24;26.30;84.00
73477;DHT22;61713;51.034;13.756;2022-08-21T13:41:54;27.40;81.60
73477;DHT22;61713;51.034;13.756;2022-08-21T13:46:58;27.30;80.10
73477;DHT22;61713;51.034;13.756;2022-08-21T13:49:30;26.50;79.40
73477;DHT22;61713;51.034;13.756;2022-08-21T13:51:57;28.10;77.60
73477;DHT22;61713;51.034;13.756;2022-08-21T13:54:35;26.70;79.40
73477;DHT22;61713;51.034;13.756;2022-08-21T13:57:02;27.00;77.40
73477;DHT22;61713;51.034;13.756;2022-08-21T13:59:33;25.80;79.80
73477;DHT22;61713;51.034;13.756;2022-08-21T14:02:13;25.80;80.70
73477;DHT22;61713;51.034;13.756;2022-08-21T14:04:51;25.60;79.10
73477;DHT22;61713;51.034;13.756;2022-08-21T14:07:35;24.50;78.20
73477;DHT22;61713;51.034;13.756;2022-08-21T14:10:03;25.30;78.60
73477;DHT22;61713;51.034;13.756;2022-08-21T14:12:35;24.80;79.20
73477;DHT22;61713;51.034;13.756;2022-08-21T14:15:04;24.60;79.40
73477;DHT22;61713;51.034;13.756;2022-08-21T14:17:36;24.60;80.70
73477;DHT22;61713;51.034;13.756;2022-08-21T14:20:05;26.00;77.40
73477;DHT22;61713;51.034;13.756;2022-08-21T14:22:37;26.40;76.00
73477;DHT22;61713;51.034;13.756;2022-08-21T14:25:47;27.00;73.70
73477;DHT22;61713;51.034;13.756;2022-08-21T14:28:32;26.20;75.60
73477;DHT22;61713;51.034;13.756;2022-08-21T14:31:11;25.40;75.90
73477;DHT22;61713;51.034;13.756;2022-08-21T14:33:37;25.50;74.60
73477;DHT22;61713;51.034;13.756;2022-08-21T14:36:03;26.00;74.30
73477;DHT22;61713;51.034;13.756;2022-08-21T14:38:29;26.60;72.10
73477;DHT22;61713;51.034;13.756;2022-08-21T14:40:57;27.20;69.40
73477;DHT22;61713;51.034;13.756;2022-08-21T14:43:26;27.60;73.50
73477;DHT22;61713;51.034;13.756;2022-08-21T14:45:52;27.50;66.10
73477;DHT22;61713;51.034;13.756;2022-08-21T14:48:17;26.40;72.30
73477;DHT22;61713;51.034;13.756;2022-08-21T14:50:43;27.30;68.70
73477;DHT22;61713;51.034;13.756;2022-08-21T14:53:08;26.60;69.60
73477;DHT22;61713;51.034;13.756;2022-08-21T14:55:34;28.00;65.50
73477;DHT22;61713;51.034;13.756;2022-08-21T14:58:19;27.50;65.30
73477;DHT22;61713;51.034;13.756;2022-08-21T15:00:45;28.80;62.50
73477;DHT22;61713;51.034;13.756;2022-08-21T15:03:10;29.20;60.40
73477;DHT22;61713;51.034;13.756;2022-08-21T15:05:36;28.20;60.80
73477;DHT22;61713;51.034;13.756;2022-08-21T15:08:02;28.00;62.00
73477;DHT22;61713;51.034;13.756;2022-08-21T15:10:29;27.50;61.10
73477;DHT22;61713;51.034;13.756;2022-08-21T15:12:55;28.30;59.00
73477;DHT22;61713;51.034;13.756;2022-08-21T15:15:20;28.50;59.10
73477;DHT22;61713;51.034;13.756;2022-08-21T15:17:46;29.30;58.70
73477;DHT22;61713;51.034;13.756;2022-08-21T15:20:11;28.50;59.50
73477;DHT22;61713;51.034;13.756;2022-08-21T15:22:37;28.60;59.20
73477;DHT22;61713;51.034;13.756;2022-08-21T15:25:03;29.50;57.40
73477;DHT22;61713;51.034;13.756;2022-08-21T15:27:29;28.70;56.10
73477;DHT22;61713;51.034;13.756;2022-08-21T15:29:54;29.20;55.90
73477;DHT22;61713;51.034;13.756;2022-08-21T15:32:26;28.40;56.60
73477;DHT22;61713;51.034;13.756;2022-08-21T15:34:54;29.10;55.10
73477;DHT22;61713;51.034;13.756;2022-08-21T15:37:21;29.90;54.20
73477;DHT22;61713;51.034;13.756;2022-08-21T15:39:47;32.10;52.20
73477;DHT22;61713;51.034;13.756;2022-08-21T15:42:13;30.80;50.60
73477;DHT22;61713;51.034;13.756;2022-08-21T15:44:40;30.90;51.70
73477;DHT22;61713;51.034;13.756;2022-08-21T15:47:08;32.60;51.20
73477;DHT22;61713;51.034;13.756;2022-08-21T15:49:35;33.60;46.30
73477;DHT22;61713;51.034;13.756;2022-08-21T15:52:01;28.70;53.40
73477;DHT22;61713;51.034;13.756;2022-08-21T15:54:27;29.70;52.50
73477;DHT22;61713;51.034;13.756;2022-08-21T15:56:52;30.00;51.70
73477;DHT22;61713;51.034;13.756;2022-08-21T15:59:20;30.20;50.60
73477;DHT22;61713;51.034;13.756;2022-08-21T16:01:48;28.20;52.80
73477;DHT22;61713;51.034;13.756;2022-08-21T16:04:26;29.60;51.40
73477;DHT22;61713;51.034;13.756;2022-08-21T16:06:53;28.90;52.80
73477;DHT22;61713;51.034;13.756;2022-08-21T16:09:19;26.60;57.50
73477;DHT22;61713;51.034;13.756;2022-08-21T16:11:44;25.20;58.10
73477;DHT22;61713;51.034;13.756;2022-08-21T16:14:13;24.50;59.90
73477;DHT22;61713;51.034;13.756;2022-08-21T16:16:39;24.20;61.20
73477;DHT22;61713;51.034;13.756;2022-08-21T16:19:04;24.10;61.20
73477;DHT22;61713;51.034;13.756;2022-08-21T16:21:32;23.90;62.80
73477;DHT22;61713;51.034;13.756;2022-08-21T16:23:57;23.80;63.40
73477;DHT22;61713;51.034;13.756;2022-08-21T16:26:23;23.50;64.10